sensor_id;sensor_type;location;lat;lon;timestamp;noise_LAeq;noise_LA_min;noise_LA_max;noise_LA01;noise_LA95
42701;Laerm;28316;49.504;8.526;2023-05-19T00:01:14;40.57;38.21;42.41;;
42701;Laerm;28316;49.504;8.526;2023-05-19T00:03:50;40.58;38.21;42.35;;
42701;Laerm;28316;49.504;8.526;2023-05-19T00:06:25;40.62;38.52;42.41;;
42701;Laerm;28316;49.504;8.526;2023-05-19T00:09:03;40.66;37.88;42.53;;
42701;Laerm;28316;49.504;8.526;2023-05-19T00:11:30;40.68;38.37;42.22;;
42701;Laerm;28316;49.504;8.526;2023-05-19T00:13:58;40.73;38.37;42.22;;
42701;Laerm;28316;49.504;8.526;2023-05-19T00:16:26;40.79;38.95;42.47;;
42701;Laerm;28316;49.504;8.526;2023-05-19T00:18:52;40.83;38.67;42.41;;
42701;Laerm;28316;49.504;8.526;2023-05-19T00:21:18;40.90;38.95;42.42;;
42701;Laerm;28316;49.504;8.526;2023-05-19T00:23:45;40.96;39.08;42.35;;
42701;Laerm;28316;49.504;8.526;2023-05-19T00:26:11;41.02;38.95;42.53;;
42701;Laerm;28316;49.504;8.526;2023-05-19T00:28:37;41.06;39.08;42.65;;
42701;Laerm;28316;49.504;8.526;2023-05-19T00:31:04;41.06;39.34;42.71;;
42701;Laerm;28316;49.504;8.526;2023-05-19T00:33:30;41.07;39.46;42.53;;
42701;Laerm;28316;49.504;8.526;2023-05-19T00:35:59;41.13;39.34;42.53;;
42701;Laerm;28316;49.504;8.526;2023-05-19T00:38:29;41.09;38.95;42.47;;
42701;Laerm;28316;49.504;8.526;2023-05-19T00:40:55;41.12;39.34;42.71;;
42701;Laerm;28316;49.504;8.526;2023-05-19T00:43:20;41.13;39.34;42.65;;
42701;Laerm;28316;49.504;8.526;2023-05-19T00:45:46;41.14;39.34;42.71;;
42701;Laerm;28316;49.504;8.526;2023-05-19T00:48:12;41.19;39.08;42.71;;
42701;Laerm;28316;49.504;8.526;2023-05-19T00:50:38;41.22;39.34;42.59;;
42701;Laerm;28316;49.504;8.526;2023-05-19T00:53:04;41.22;39.46;42.82;;
42701;Laerm;28316;49.504;8.526;2023-05-19T00:55:30;41.23;38.81;42.65;;
42701;Laerm;28316;49.504;8.526;2023-05-19T00:57:58;41.28;39.21;42.59;;
42701;Laerm;28316;49.504;8.526;2023-05-19T01:00:24;41.31;39.21;42.65;;
42701;Laerm;28316;49.504;8.526;2023-05-19T01:02:50;41.33;39.58;42.71;;
42701;Laerm;28316;49.504;8.526;2023-05-19T01:05:16;41.35;39.70;42.82;;
42701;Laerm;28316;49.504;8.526;2023-05-19T01:07:42;41.35;39.46;42.82;;
42701;Laerm;28316;49.504;8.526;2023-05-19T01:10:08;41.31;39.58;42.65;;
42701;Laerm;28316;49.504;8.526;2023-05-19T01:12:35;41.31;39.58;42.76;;
42701;Laerm;28316;49.504;8.526;2023-05-19T01:15:02;41.28;39.46;42.71;;
42701;Laerm;28316;49.504;8.526;2023-05-19T01:17:46;41.28;39.58;42.82;;
42701;Laerm;28316;49.504;8.526;2023-05-19T01:20:21;41.26;39.58;42.65;;
42701;Laerm;28316;49.504;8.526;2023-05-19T01:29:22;41.28;39.58;42.71;;
42701;Laerm;28316;49.504;8.526;2023-05-19T01:31:53;41.30;39.46;42.76;;
42701;Laerm;28316;49.504;8.526;2023-05-19T01:34:20;41.33;39.70;42.65;;
42701;Laerm;28316;49.504;8.526;2023-05-19T01:36:48;41.33;39.46;42.88;;
42701;Laerm;28316;49.504;8.526;2023-05-19T01:39:16;41.35;39.21;42.88;;
42701;Laerm;28316;49.504;8.526;2023-05-19T01:41:43;41.35;39.46;42.65;;
42701;Laerm;28316;49.504;8.526;2023-05-19T01:44:10;41.32;39.58;42.76;;
42701;Laerm;28316;49.504;8.526;2023-05-19T01:46:37;41.31;39.58;42.76;;
42701;Laerm;28316;49.504;8.526;2023-05-19T01:49:04;41.28;39.58;42.53;;
42701;Laerm;28316;49.504;8.526;2023-05-19T01:51:30;41.26;39.34;42.65;;
42701;Laerm;28316;49.504;8.526;2023-05-19T01:53:56;41.28;39.08;42.82;;
42701;Laerm;28316;49.504;8.526;2023-05-19T01:56:49;41.28;39.34;42.65;;
42701;Laerm;28316;49.504;8.526;2023-05-19T01:59:39;41.33;39.70;42.76;;
42701;Laerm;28316;49.504;8.526;2023-05-19T02:02:25;41.40;39.34;42.76;;
42701;Laerm;28316;49.504;8.526;2023-05-19T02:05:21;41.47;39.81;42.85;;
42701;Laerm;28316;49.504;8.526;2023-05-19T02:09:01;41.60;40.03;42.93;;
42701;Laerm;28316;49.504;8.526;2023-05-19T02:11:18;41.71;40.03;43.04;;
42701;Laerm;28316;49.504;8.526;2023-05-19T02:13:49;41.78;40.43;42.98;;
42701;Laerm;28316;49.504;8.526;2023-05-19T02:16:16;41.84;40.33;43.04;;
42701;Laerm;28316;49.504;8.526;2023-05-19T02:18:42;41.90;40.13;42.98;;
42701;Laerm;28316;49.504;8.526;2023-05-19T02:21:10;41.91;40.53;43.19;;
42701;Laerm;28316;49.504;8.526;2023-05-19T02:23:39;41.93;40.71;42.98;;
42701;Laerm;28316;49.504;8.526;2023-05-19T02:26:06;41.95;40.62;43.24;;
42701;Laerm;28316;49.504;8.526;2023-05-19T02:28:34;41.95;40.71;43.49;;
42701;Laerm;28316;49.504;8.526;2023-05-19T02:31:01;41.95;40.53;43.81;;
42701;Laerm;28316;49.504;8.526;2023-05-19T02:33:27;41.95;40.43;43.09;;
42701;Laerm;28316;49.504;8.526;2023-05-19T02:35:56;41.94;40.62;43.19;;
42701;Laerm;28316;49.504;8.526;2023-05-19T02:38:21;41.92;40.62;43.24;;
42701;Laerm;28316;49.504;8.526;2023-05-19T02:40:50;41.90;40.33;43.19;;
42701;Laerm;28316;49.504;8.526;2023-05-19T02:43:15;41.89;40.71;42.98;;
42701;Laerm;28316;49.504;8.526;2023-05-19T02:45:41;41.85;40.53;42.88;;
42701;Laerm;28316;49.504;8.526;2023-05-19T02:48:07;41.81;40.53;42.98;;
42701;Laerm;28316;49.504;8.526;2023-05-19T02:50:32;41.77;40.33;43.14;;
42701;Laerm;28316;49.504;8.526;2023-05-19T02:52:58;41.73;39.89;43.14;;
42701;Laerm;28316;49.504;8.526;2023-05-19T02:55:24;41.74;40.23;42.82;;
42701;Laerm;28316;49.504;8.526;2023-05-19T02:57:50;41.72;40.33;42.82;;
42701;Laerm;28316;49.504;8.526;2023-05-19T03:00:15;41.73;40.43;42.88;;
42701;Laerm;28316;49.504;8.526;2023-05-19T03:02:41;41.72;40.33;42.98;;
42701;Laerm;28316;49.504;8.526;2023-05-19T03:05:09;41.71;39.92;42.79;;
42701;Laerm;28316;49.504;8.526;2023-05-19T03:07:35;41.69;40.43;42.76;;
42701;Laerm;28316;49.504;8.526;2023-05-19T03:10:01;41.65;40.33;42.82;;
42701;Laerm;28316;49.504;8.526;2023-05-19T03:12:31;41.60;40.23;42.76;;
42701;Laerm;28316;49.504;8.526;2023-05-19T03:14:58;41.54;40.33;42.76;;
42701;Laerm;28316;49.504;8.526;2023-05-19T03:17:25;41.50;39.81;42.71;;
42701;Laerm;28316;49.504;8.526;2023-05-19T03:19:50;41.49;40.23;42.71;;
42701;Laerm;28316;49.504;8.526;2023-05-19T03:22:16;41.46;40.03;42.76;;
42701;Laerm;28316;49.504;8.526;2023-05-19T03:24:45;41.42;40.13;42.65;;
42701;Laerm;28316;49.504;8.526;2023-05-19T03:27:11;41.41;40.13;42.59;;
42701;Laerm;28316;49.504;8.526;2023-05-19T03:29:37;41.41;39.81;42.65;;
42701;Laerm;28316;49.504;8.526;2023-05-19T03:32:03;41.40;39.81;42.53;;
42701;Laerm;28316;49.504;8.526;2023-05-19T03:34:29;41.39;40.23;42.47;;
42701;Laerm;28316;49.504;8.526;2023-05-19T03:36:57;41.38;39.81;42.71;;
42701;Laerm;28316;49.504;8.526;2023-05-19T03:39:22;41.34;39.92;42.41;;
42701;Laerm;28316;49.504;8.526;2023-05-19T03:41:48;41.30;40.03;42.53;;
42701;Laerm;28316;49.504;8.526;2023-05-19T03:44:14;41.29;39.92;42.59;;
42701;Laerm;28316;49.504;8.526;2023-05-19T03:46:40;41.28;39.92;42.47;;
42701;Laerm;28316;49.504;8.526;2023-05-19T03:49:05;41.27;39.70;42.35;;
42701;Laerm;28316;49.504;8.526;2023-05-19T03:51:31;41.25;39.92;42.41;;
42701;Laerm;28316;49.504;8.526;2023-05-19T03:53:59;41.27;40.03;42.41;;
42701;Laerm;28316;49.504;8.526;2023-05-19T03:56:25;41.24;39.92;42.41;;
42701;Laerm;28316;49.504;8.526;2023-05-19T03:58:52;41.24;39.58;42.47;;
42701;Laerm;28316;49.504;8.526;2023-05-19T04:01:19;41.22;39.92;42.35;;
42701;Laerm;28316;49.504;8.526;2023-05-19T04:03:45;41.20;39.81;42.41;;
42701;Laerm;28316;49.504;8.526;2023-05-19T04:06:11;41.19;39.70;42.35;;
42701;Laerm;28316;49.504;8.526;2023-05-19T04:08:39;41.20;39.92;42.41;;
42701;Laerm;28316;49.504;8.526;2023-05-19T04:11:05;41.21;39.92;42.47;;
42701;Laerm;28316;49.504;8.526;2023-05-19T04:13:32;41.22;39.70;42.47;;
42701;Laerm;28316;49.504;8.526;2023-05-19T04:15:59;41.20;39.81;42.35;;
42701;Laerm;28316;49.504;8.526;2023-05-19T04:18:24;41.25;39.92;42.53;;
42701;Laerm;28316;49.504;8.526;2023-05-19T04:20:50;41.27;39.92;42.41;;
42701;Laerm;28316;49.504;8.526;2023-05-19T04:23:16;41.26;39.81;42.41;;
42701;Laerm;28316;49.504;8.526;2023-05-19T04:25:42;41.29;39.81;42.47;;
42701;Laerm;28316;49.504;8.526;2023-05-19T04:28:07;41.29;39.92;42.47;;
42701;Laerm;28316;49.504;8.526;2023-05-19T04:30:33;41.31;39.99;42.41;;
42701;Laerm;28316;49.504;8.526;2023-05-19T04:32:59;41.32;39.92;42.35;;
42701;Laerm;28316;49.504;8.526;2023-05-19T04:35:26;41.32;39.81;42.41;;
42701;Laerm;28316;49.504;8.526;2023-05-19T04:37:51;41.34;40.03;42.59;;
42701;Laerm;28316;49.504;8.526;2023-05-19T04:40:20;41.38;40.03;42.53;;
42701;Laerm;28316;49.504;8.526;2023-05-19T04:42:49;41.38;39.81;42.53;;
42701;Laerm;28316;49.504;8.526;2023-05-19T04:45:17;41.40;40.03;42.65;;
42701;Laerm;28316;49.504;8.526;2023-05-19T04:47:42;41.41;40.13;42.53;;
42701;Laerm;28316;49.504;8.526;2023-05-19T04:50:09;41.43;40.03;42.53;;
42701;Laerm;28316;49.504;8.526;2023-05-19T04:52:35;41.51;40.13;42.65;;
42701;Laerm;28316;49.504;8.526;2023-05-19T04:55:02;41.57;40.33;42.93;;
42701;Laerm;28316;49.504;8.526;2023-05-19T04:57:28;41.59;40.13;42.71;;
42701;Laerm;28316;49.504;8.526;2023-05-19T04:59:54;41.62;40.43;42.65;;
42701;Laerm;28316;49.504;8.526;2023-05-19T05:02:27;41.66;40.33;42.69;;
42701;Laerm;28316;49.504;8.526;2023-05-19T05:04:53;41.70;40.53;42.93;;
42701;Laerm;28316;49.504;8.526;2023-05-19T05:07:21;41.70;40.43;43.14;;
42701;Laerm;28316;49.504;8.526;2023-05-19T05:09:47;41.73;40.43;42.71;;
42701;Laerm;28316;49.504;8.526;2023-05-19T05:12:14;41.75;40.33;42.76;;
42701;Laerm;28316;49.504;8.526;2023-05-19T05:14:40;41.78;40.43;42.95;;
42701;Laerm;28316;49.504;8.526;2023-05-19T05:17:07;41.81;40.43;42.88;;
42701;Laerm;28316;49.504;8.526;2023-05-19T05:19:34;41.81;40.03;42.98;;
42701;Laerm;28316;49.504;8.526;2023-05-19T05:22:00;41.79;40.43;42.98;;
42701;Laerm;28316;49.504;8.526;2023-05-19T05:24:26;41.80;40.53;42.82;;
42701;Laerm;28316;49.504;8.526;2023-05-19T05:26:52;41.82;40.53;42.93;;
42701;Laerm;28316;49.504;8.526;2023-05-19T05:29:19;41.85;40.53;42.93;;
42701;Laerm;28316;49.504;8.526;2023-05-19T05:31:45;41.88;40.71;43.14;;
42701;Laerm;28316;49.504;8.526;2023-05-19T05:34:11;41.92;40.80;42.98;;
42701;Laerm;28316;49.504;8.526;2023-05-19T05:36:37;41.97;40.71;43.04;;
42701;Laerm;28316;49.504;8.526;2023-05-19T05:39:02;42.01;40.80;43.19;;
42701;Laerm;28316;49.504;8.526;2023-05-19T05:41:30;42.03;40.80;43.19;;
42701;Laerm;28316;49.504;8.526;2023-05-19T05:44:00;42.06;40.62;43.09;;
42701;Laerm;28316;49.504;8.526;2023-05-19T05:46:26;42.06;40.71;43.14;;
42701;Laerm;28316;49.504;8.526;2023-05-19T05:48:53;42.07;40.71;43.19;;
42701;Laerm;28316;49.504;8.526;2023-05-19T05:51:22;42.07;40.71;43.24;;
42701;Laerm;28316;49.504;8.526;2023-05-19T05:53:53;42.07;40.80;43.29;;
42701;Laerm;28316;49.504;8.526;2023-05-19T05:56:20;42.09;40.89;43.19;;
42701;Laerm;28316;49.504;8.526;2023-05-19T05:58:46;42.10;40.89;43.14;;
42701;Laerm;28316;49.504;8.526;2023-05-19T06:01:12;42.10;40.80;43.34;;
42701;Laerm;28316;49.504;8.526;2023-05-19T06:03:40;42.10;40.89;43.19;;
42701;Laerm;28316;49.504;8.526;2023-05-19T06:06:07;42.11;40.71;43.49;;
42701;Laerm;28316;49.504;8.526;2023-05-19T06:08:33;42.11;40.23;43.49;;
42701;Laerm;28316;49.504;8.526;2023-05-19T06:10:58;42.08;40.80;43.29;;
42701;Laerm;28316;49.504;8.526;2023-05-19T06:13:24;42.06;40.53;43.14;;
42701;Laerm;28316;49.504;8.526;2023-05-19T06:15:51;42.01;40.62;43.19;;
42701;Laerm;28316;49.504;8.526;2023-05-19T06:18:17;41.99;40.43;43.19;;
42701;Laerm;28316;49.504;8.526;2023-05-19T06:20:43;41.95;40.43;43.19;;
42701;Laerm;28316;49.504;8.526;2023-05-19T06:23:09;41.90;40.43;43.09;;
42701;Laerm;28316;49.504;8.526;2023-05-19T06:25:35;41.88;40.53;43.09;;
42701;Laerm;28316;49.504;8.526;2023-05-19T06:28:01;41.87;40.43;43.19;;
42701;Laerm;28316;49.504;8.526;2023-05-19T06:30:27;41.85;40.33;43.19;;
42701;Laerm;28316;49.504;8.526;2023-05-19T06:32:53;42.02;40.33;59.84;;
42701;Laerm;28316;49.504;8.526;2023-05-19T06:35:19;41.75;40.23;42.88;;
42701;Laerm;28316;49.504;8.526;2023-05-19T06:37:45;41.68;39.92;42.93;;
42701;Laerm;28316;49.504;8.526;2023-05-19T06:40:11;41.66;40.03;43.24;;
42701;Laerm;28316;49.504;8.526;2023-05-19T06:42:37;41.60;40.03;42.98;;
42701;Laerm;28316;49.504;8.526;2023-05-19T06:45:03;41.60;39.81;42.88;;
42701;Laerm;28316;49.504;8.526;2023-05-19T06:47:29;41.54;39.46;42.93;;
42701;Laerm;28316;49.504;8.526;2023-05-19T06:49:55;41.53;39.70;42.88;;
42701;Laerm;28316;49.504;8.526;2023-05-19T06:52:21;41.46;39.58;42.76;;
42701;Laerm;28316;49.504;8.526;2023-05-19T06:54:48;41.40;39.70;42.82;;
42701;Laerm;28316;49.504;8.526;2023-05-19T06:57:14;41.37;39.08;42.76;;
42701;Laerm;28316;49.504;8.526;2023-05-19T06:59:40;41.36;39.58;42.82;;
42701;Laerm;28316;49.504;8.526;2023-05-19T07:02:08;41.34;39.58;42.82;;
42701;Laerm;28316;49.504;8.526;2023-05-19T07:04:35;41.34;39.70;42.82;;
42701;Laerm;28316;49.504;8.526;2023-05-19T07:07:01;41.34;39.58;42.71;;
42701;Laerm;28316;49.504;8.526;2023-05-19T07:09:27;41.35;39.34;42.88;;
42701;Laerm;28316;49.504;8.526;2023-05-19T07:11:53;41.28;38.81;42.88;;
42701;Laerm;28316;49.504;8.526;2023-05-19T07:14:21;41.24;39.46;42.71;;
42701;Laerm;28316;49.504;8.526;2023-05-19T07:16:46;41.19;39.21;42.59;;
42701;Laerm;28316;49.504;8.526;2023-05-19T07:19:12;41.16;39.21;42.53;;
42701;Laerm;28316;49.504;8.526;2023-05-19T07:21:38;41.15;39.34;42.47;;
42701;Laerm;28316;49.504;8.526;2023-05-19T07:24:04;41.17;39.08;42.65;;
42701;Laerm;28316;49.504;8.526;2023-05-19T07:26:31;41.14;39.34;42.53;;
42701;Laerm;28316;49.504;8.526;2023-05-19T07:28:56;41.13;38.95;42.53;;
42701;Laerm;28316;49.504;8.526;2023-05-19T07:31:22;41.13;39.21;42.65;;
42701;Laerm;28316;49.504;8.526;2023-05-19T07:33:48;41.03;38.95;43.90;;
42701;Laerm;28316;49.504;8.526;2023-05-19T07:36:14;40.96;39.08;42.59;;
42701;Laerm;28316;49.504;8.526;2023-05-19T07:38:40;40.90;38.52;42.59;;
42701;Laerm;28316;49.504;8.526;2023-05-19T07:41:05;40.83;38.37;42.35;;
42701;Laerm;28316;49.504;8.526;2023-05-19T07:43:31;40.73;38.37;42.29;;
42701;Laerm;28316;49.504;8.526;2023-05-19T07:45:57;40.68;38.52;42.41;;
42701;Laerm;28316;49.504;8.526;2023-05-19T07:48:23;40.69;38.37;42.29;;
42701;Laerm;28316;49.504;8.526;2023-05-19T07:50:51;40.61;38.21;42.35;;
42701;Laerm;28316;49.504;8.526;2023-05-19T07:53:20;40.55;38.21;42.35;;
42701;Laerm;28316;49.504;8.526;2023-05-19T07:55:47;40.52;38.21;42.41;;
42701;Laerm;28316;49.504;8.526;2023-05-19T07:58:14;40.50;38.21;42.22;;
42701;Laerm;28316;49.504;8.526;2023-05-19T08:00:40;40.47;38.21;42.16;;
42701;Laerm;28316;49.504;8.526;2023-05-19T08:03:10;40.42;38.21;42.30;;
42701;Laerm;28316;49.504;8.526;2023-05-19T08:05:37;40.38;37.88;42.22;;
42701;Laerm;28316;49.504;8.526;2023-05-19T08:08:03;40.34;37.88;42.16;;
42701;Laerm;28316;49.504;8.526;2023-05-19T08:10:29;40.35;37.52;42.16;;
42701;Laerm;28316;49.504;8.526;2023-05-19T08:12:55;40.27;37.70;41.89;;
42701;Laerm;28316;49.504;8.526;2023-05-19T08:15:21;40.23;37.70;41.96;;
42701;Laerm;28316;49.504;8.526;2023-05-19T08:17:46;40.23;37.70;42.41;;
42701;Laerm;28316;49.504;8.526;2023-05-19T08:20:13;40.10;37.32;42.09;;
42701;Laerm;28316;49.504;8.526;2023-05-19T08:22:39;40.08;37.70;41.96;;
42701;Laerm;28316;49.504;8.526;2023-05-19T08:25:05;40.05;37.32;42.09;;
42701;Laerm;28316;49.504;8.526;2023-05-19T08:27:32;40.08;37.52;42.53;;
42701;Laerm;28316;49.504;8.526;2023-05-19T08:29:58;40.05;37.32;43.14;;
42701;Laerm;28316;49.504;8.526;2023-05-19T08:32:24;39.93;36.91;41.82;;
42701;Laerm;28316;49.504;8.526;2023-05-19T08:34:50;39.90;37.32;41.75;;
42701;Laerm;28316;49.504;8.526;2023-05-19T08:37:15;39.86;37.12;41.82;;
42701;Laerm;28316;49.504;8.526;2023-05-19T08:39:41;39.79;37.12;41.82;;
42701;Laerm;28316;49.504;8.526;2023-05-19T08:42:07;39.79;36.45;41.53;;
42701;Laerm;28316;49.504;8.526;2023-05-19T08:44:35;39.79;36.69;41.75;;
42701;Laerm;28316;49.504;8.526;2023-05-19T08:47:03;39.81;36.91;41.53;;
42701;Laerm;28316;49.504;8.526;2023-05-19T08:49:36;39.76;37.12;41.96;;
42701;Laerm;28316;49.504;8.526;2023-05-19T08:54:45;39.80;37.12;41.82;;
42701;Laerm;28316;49.504;8.526;2023-05-19T08:57:15;39.78;36.45;41.82;;
42701;Laerm;28316;49.504;8.526;2023-05-19T08:59:42;39.70;36.69;41.89;;
42701;Laerm;28316;49.504;8.526;2023-05-19T09:02:10;39.60;36.69;41.68;;
42701;Laerm;28316;49.504;8.526;2023-05-19T09:04:38;39.59;36.69;41.75;;
42701;Laerm;28316;49.504;8.526;2023-05-19T09:07:05;39.58;36.45;41.75;;
42701;Laerm;28316;49.504;8.526;2023-05-19T09:09:31;39.55;36.69;41.89;;
42701;Laerm;28316;49.504;8.526;2023-05-19T09:11:57;39.60;36.91;41.53;;
42701;Laerm;28316;49.504;8.526;2023-05-19T09:14:23;39.54;36.91;41.68;;
42701;Laerm;28316;49.504;8.526;2023-05-19T09:16:49;39.50;36.69;41.88;;
42701;Laerm;28316;49.504;8.526;2023-05-19T09:19:17;39.46;36.69;41.68;;
42701;Laerm;28316;49.504;8.526;2023-05-19T09:21:43;39.48;35.94;42.29;;
42701;Laerm;28316;49.504;8.526;2023-05-19T09:24:10;39.46;36.45;41.68;;
42701;Laerm;28316;49.504;8.526;2023-05-19T09:26:43;39.48;36.20;41.53;;
42701;Laerm;28316;49.504;8.526;2023-05-19T09:29:14;39.46;36.45;41.82;;
42701;Laerm;28316;49.504;8.526;2023-05-19T09:31:51;39.47;36.45;42.03;;
42701;Laerm;28316;49.504;8.526;2023-05-19T09:34:19;39.44;36.45;41.46;;
42701;Laerm;28316;49.504;8.526;2023-05-19T09:36:49;39.46;36.69;41.82;;
42701;Laerm;28316;49.504;8.526;2023-05-19T09:39:22;39.49;36.91;41.61;;
42701;Laerm;28316;49.504;8.526;2023-05-19T09:41:52;39.50;36.10;43.77;;
42701;Laerm;28316;49.504;8.526;2023-05-19T09:44:22;39.50;36.20;41.89;;
42701;Laerm;28316;49.504;8.526;2023-05-19T09:46:52;39.49;36.45;41.82;;
42701;Laerm;28316;49.504;8.526;2023-05-19T09:49:28;39.75;36.69;42.98;;
42701;Laerm;28316;49.504;8.526;2023-05-19T09:51:56;39.62;36.98;43.04;;
42701;Laerm;28316;49.504;8.526;2023-05-19T09:54:23;39.47;36.69;43.63;;
42701;Laerm;28316;49.504;8.526;2023-05-19T09:56:57;39.47;36.45;41.61;;
42701;Laerm;28316;49.504;8.526;2023-05-19T09:59:24;39.45;36.45;41.68;;
42701;Laerm;28316;49.504;8.526;2023-05-19T10:01:56;39.49;36.69;42.03;;
42701;Laerm;28316;49.504;8.526;2023-05-19T10:04:23;39.45;36.45;41.75;;
42701;Laerm;28316;49.504;8.526;2023-05-19T10:06:50;39.44;36.20;41.89;;
42701;Laerm;28316;49.504;8.526;2023-05-19T10:09:25;39.40;36.20;41.53;;
42701;Laerm;28316;49.504;8.526;2023-05-19T10:11:54;39.38;35.94;41.82;;
42701;Laerm;28316;49.504;8.526;2023-05-19T10:14:28;39.40;35.04;42.76;;
42701;Laerm;28316;49.504;8.526;2023-05-19T10:16:56;39.26;35.36;43.54;;
42701;Laerm;28316;49.504;8.526;2023-05-19T10:19:27;39.30;35.94;41.46;;
42701;Laerm;28316;49.504;8.526;2023-05-19T10:21:53;39.26;35.59;41.53;;
42701;Laerm;28316;49.504;8.526;2023-05-19T10:24:20;39.36;36.45;43.72;;
42701;Laerm;28316;49.504;8.526;2023-05-19T10:29:43;39.27;35.04;41.75;;
42701;Laerm;28316;49.504;8.526;2023-05-19T10:32:15;39.29;36.20;41.41;;
42701;Laerm;28316;49.504;8.526;2023-05-19T10:44:22;39.13;35.66;42.59;;
42701;Laerm;28316;49.504;8.526;2023-05-19T10:46:43;39.16;34.31;44.39;;
42701;Laerm;28316;49.504;8.526;2023-05-19T10:49:09;39.16;35.94;42.29;;
42701;Laerm;28316;49.504;8.526;2023-05-19T10:51:35;39.16;35.94;43.29;;
42701;Laerm;28316;49.504;8.526;2023-05-19T10:54:07;39.23;35.94;44.51;;
42701;Laerm;28316;49.504;8.526;2023-05-19T10:56:38;39.31;35.66;43.94;;
42701;Laerm;28316;49.504;8.526;2023-05-19T10:59:07;39.26;35.94;41.89;;
42701;Laerm;28316;49.504;8.526;2023-05-19T11:01:34;39.09;35.94;42.47;;
42701;Laerm;28316;49.504;8.526;2023-05-19T11:04:09;39.15;36.20;43.39;;
42701;Laerm;28316;49.504;8.526;2023-05-19T11:06:39;39.22;35.66;44.97;;
42701;Laerm;28316;49.504;8.526;2023-05-19T11:09:19;39.16;35.94;43.54;;
42701;Laerm;28316;49.504;8.526;2023-05-19T11:11:52;39.19;35.66;42.76;;
42701;Laerm;28316;49.504;8.526;2023-05-19T11:14:25;39.07;35.66;42.58;;
42701;Laerm;28316;49.504;8.526;2023-05-19T11:17:00;39.15;36.20;43.14;;
42701;Laerm;28316;49.504;8.526;2023-05-19T11:19:28;39.02;35.66;41.22;;
42701;Laerm;28316;49.504;8.526;2023-05-19T11:21:56;38.98;35.36;41.06;;
42701;Laerm;28316;49.504;8.526;2023-05-19T11:24:46;38.90;35.66;41.53;;
42701;Laerm;28316;49.504;8.526;2023-05-19T11:27:35;38.87;35.36;42.47;;
42701;Laerm;28316;49.504;8.526;2023-05-19T11:32:33;39.05;35.66;44.11;;
42701;Laerm;28316;49.504;8.526;2023-05-19T11:35:00;38.96;35.36;41.53;;
42701;Laerm;28316;49.504;8.526;2023-05-19T11:37:32;38.95;35.66;41.89;;
42701;Laerm;28316;49.504;8.526;2023-05-19T11:40:00;38.91;35.36;43.44;;
42701;Laerm;28316;49.504;8.526;2023-05-19T11:42:26;38.79;35.36;41.53;;
42701;Laerm;28316;49.504;8.526;2023-05-19T11:44:54;38.97;35.04;44.76;;
42701;Laerm;28316;49.504;8.526;2023-05-19T11:47:20;38.90;35.04;42.09;;
42701;Laerm;28316;49.504;8.526;2023-05-19T11:49:50;38.89;35.04;43.90;;
42701;Laerm;28316;49.504;8.526;2023-05-19T11:52:16;38.88;35.66;41.22;;
42701;Laerm;28316;49.504;8.526;2023-05-19T11:54:47;38.89;35.36;42.22;;
42701;Laerm;28316;49.504;8.526;2023-05-19T11:57:13;38.82;35.36;41.46;;
42701;Laerm;28316;49.504;8.526;2023-05-19T11:59:39;38.78;35.36;41.22;;
42701;Laerm;28316;49.504;8.526;2023-05-19T12:02:23;38.83;35.36;41.75;;
42701;Laerm;28316;49.504;8.526;2023-05-19T12:04:53;38.90;35.66;43.09;;
42701;Laerm;28316;49.504;8.526;2023-05-19T12:07:22;38.90;34.69;42.00;;
42701;Laerm;28316;49.504;8.526;2023-05-19T12:09:49;38.83;34.69;42.29;;
42701;Laerm;28316;49.504;8.526;2023-05-19T12:12:20;38.83;35.66;41.22;;
42701;Laerm;28316;49.504;8.526;2023-05-19T12:14:50;38.88;35.36;42.71;;
42701;Laerm;28316;49.504;8.526;2023-05-19T12:17:19;38.94;35.66;44.72;;
42701;Laerm;28316;49.504;8.526;2023-05-19T12:19:47;38.84;35.66;41.22;;
42701;Laerm;28316;49.504;8.526;2023-05-19T12:22:16;38.87;35.66;41.53;;
42701;Laerm;28316;49.504;8.526;2023-05-19T12:24:43;38.91;35.04;41.75;;
42701;Laerm;28316;49.504;8.526;2023-05-19T12:27:19;38.89;35.66;41.14;;
42701;Laerm;28316;49.504;8.526;2023-05-19T12:29:54;38.91;35.36;41.14;;
42701;Laerm;28316;49.504;8.526;2023-05-19T12:32:26;38.88;35.04;41.06;;
42701;Laerm;28316;49.504;8.526;2023-05-19T12:34:55;38.90;35.04;43.29;;
42701;Laerm;28316;49.504;8.526;2023-05-19T12:37:21;38.85;35.36;41.19;;
42701;Laerm;28316;49.504;8.526;2023-05-19T12:39:50;38.93;35.36;41.06;;
42701;Laerm;28316;49.504;8.526;2023-05-19T12:42:16;38.93;35.94;41.38;;
42701;Laerm;28316;49.504;8.526;2023-05-19T12:44:49;38.97;35.04;41.14;;
42701;Laerm;28316;49.504;8.526;2023-05-19T12:47:18;38.99;35.66;42.03;;
42701;Laerm;28316;49.504;8.526;2023-05-19T12:49:55;38.99;35.66;41.46;;
42701;Laerm;28316;49.504;8.526;2023-05-19T12:52:22;38.95;35.66;41.22;;
42701;Laerm;28316;49.504;8.526;2023-05-19T12:54:49;38.96;35.66;41.53;;
42701;Laerm;28316;49.504;8.526;2023-05-19T12:57:22;38.96;32.93;41.53;;
42701;Laerm;28316;49.504;8.526;2023-05-19T12:59:48;38.91;35.66;41.46;;
42701;Laerm;28316;49.504;8.526;2023-05-19T13:02:13;38.97;35.31;41.22;;
42701;Laerm;28316;49.504;8.526;2023-05-19T13:04:40;38.90;35.36;41.38;;
42701;Laerm;28316;49.504;8.526;2023-05-19T13:07:05;38.93;35.36;41.22;;
42701;Laerm;28316;49.504;8.526;2023-05-19T13:09:31;38.91;35.94;41.30;;
42701;Laerm;28316;49.504;8.526;2023-05-19T13:11:59;38.90;35.36;41.22;;
42701;Laerm;28316;49.504;8.526;2023-05-19T13:14:25;38.90;35.36;41.30;;
42701;Laerm;28316;49.504;8.526;2023-05-19T13:16:51;38.90;34.69;41.22;;
42701;Laerm;28316;49.504;8.526;2023-05-19T13:19:18;38.98;35.66;42.90;;
42701;Laerm;28316;49.504;8.526;2023-05-19T13:21:45;38.94;35.66;41.38;;
42701;Laerm;28316;49.504;8.526;2023-05-19T13:24:15;38.93;35.36;41.38;;
42701;Laerm;28316;49.504;8.526;2023-05-19T13:26:41;38.94;35.66;41.30;;
42701;Laerm;28316;49.504;8.526;2023-05-19T13:29:07;38.97;35.94;41.22;;
42701;Laerm;28316;49.504;8.526;2023-05-19T13:31:33;39.20;35.66;45.30;;
42701;Laerm;28316;49.504;8.526;2023-05-19T13:33:59;39.02;35.94;41.22;;
42701;Laerm;28316;49.504;8.526;2023-05-19T13:36:25;39.07;35.36;42.09;;
42701;Laerm;28316;49.504;8.526;2023-05-19T13:38:53;39.02;35.94;41.48;;
42701;Laerm;28316;49.504;8.526;2023-05-19T13:41:27;39.07;35.66;41.46;;
42701;Laerm;28316;49.504;8.526;2023-05-19T13:43:56;39.07;35.66;41.68;;
42701;Laerm;28316;49.504;8.526;2023-05-19T13:46:23;39.03;35.04;41.38;;
42701;Laerm;28316;49.504;8.526;2023-05-19T13:48:49;39.03;35.94;41.38;;
42701;Laerm;28316;49.504;8.526;2023-05-19T13:51:14;39.05;35.66;42.09;;
42701;Laerm;28316;49.504;8.526;2023-05-19T13:53:40;39.06;35.36;41.53;;
42701;Laerm;28316;49.504;8.526;2023-05-19T13:56:06;39.04;35.94;41.22;;
42701;Laerm;28316;49.504;8.526;2023-05-19T13:58:32;39.04;35.36;41.22;;
42701;Laerm;28316;49.504;8.526;2023-05-19T14:00:58;39.05;35.94;41.30;;
42701;Laerm;28316;49.504;8.526;2023-05-19T14:03:25;39.06;35.94;41.46;;
42701;Laerm;28316;49.504;8.526;2023-05-19T14:05:51;39.11;35.94;42.65;;
42701;Laerm;28316;49.504;8.526;2023-05-19T14:08:17;39.16;35.66;44.97;;
42701;Laerm;28316;49.504;8.526;2023-05-19T14:10:47;39.09;35.86;43.04;;
42701;Laerm;28316;49.504;8.526;2023-05-19T14:13:13;39.08;34.69;41.38;;